Time,TemperatureF,DewpointF,PressureIn,WindDirection,WindDirectionDegrees,WindSpeedMPH,WindSpeedGustMPH,Humidity,HourlyPrecipIn,Conditions,Clouds,dailyrainin,SolarRadiationWatts/m^2,SoftwareType,DateUTC
2013-01-12 00:00:00,35.0,34.5,30.13,SE,143,0.0,0.0,98,0.00,,,0.38,0,Wunderground v.1.15,2013-01-12 05:00:00,
2013-01-12 00:02:00,35.0,34.5,30.13,SE,143,0.0,0.0,98,0.00,,,0.38,0,Wunderground v.1.15,2013-01-12 05:02:00,
2013-01-12 00:04:00,35.1,34.6,30.13,SE,143,0.0,0.0,98,0.00,,,0.38,0,Wunderground v.1.15,2013-01-12 05:04:00,
2013-01-12 00:10:00,35.0,34.5,30.14,SE,143,0.0,0.0,98,0.00,,,0.00,0,Wunderground v.1.15,2013-01-12 05:10:00,
2013-01-12 00:16:00,34.9,34.4,30.13,SE,143,0.0,0.0,98,0.00,,,0.00,0,Wunderground v.1.15,2013-01-12 05:16:00,
2013-01-12 00:20:00,35.1,34.6,30.13,SE,143,0.0,0.0,98,0.00,,,0.00,0,Wunderground v.1.15,2013-01-12 05:20:00,
2013-01-12 00:26:00,35.2,34.7,30.13,SE,143,0.0,0.0,98,0.00,,,0.00,0,Wunderground v.1.15,2013-01-12 05:26:00,
2013-01-12 00:32:00,35.2,34.7,30.13,SE,143,0.0,0.0,98,0.00,,,0.00,0,Wunderground v.1.15,2013-01-12 05:32:00,
2013-01-12 00:38:00,35.1,34.6,30.13,SE,143,0.0,0.0,98,0.00,,,0.00,0,Wunderground v.1.15,2013-01-12 05:38:00,
2013-01-12 00:44:00,34.6,34.1,30.13,SE,143,0.0,0.0,98,0.00,,,0.00,0,Wunderground v.1.15,2013-01-12 05:44:00,
2013-01-12 00:50:00,34.8,34.3,30.13,SE,143,0.0,0.0,98,0.00,,,0.00,0,Wunderground v.1.15,2013-01-12 05:50:00,
2013-01-12 00:56:00,35.1,34.6,30.13,SE,143,0.0,0.0,98,0.00,,,0.00,0,Wunderground v.1.15,2013-01-12 05:56:00,
2013-01-12 01:02:00,34.8,34.3,30.14,SE,143,0.0,0.0,98,0.00,,,0.00,0,Wunderground v.1.15,2013-01-12 06:02:00,
2013-01-12 01:08:00,34.9,34.4,30.14,SE,143,0.0,0.0,98,0.00,,,0.00,0,Wunderground v.1.15,2013-01-12 06:08:00,
2013-01-12 01:14:00,34.8,34.3,30.14,SE,143,0.0,0.0,98,0.00,,,0.00,0,Wunderground v.1.15,2013-01-12 06:14:00,
2013-01-12 01:20:00,35.0,34.5,30.14,SE,143,0.0,0.0,98,0.00,,,0.00,0,Wunderground v.1.15,2013-01-12 06:20:00,
2013-01-12 01:26:00,35.0,34.5,30.14,SE,143,0.0,0.0,98,0.00,,,0.00,0,Wunderground v.1.15,2013-01-12 06:26:00,
2013-01-12 01:32:00,35.1,34.6,30.14,SE,143,0.0,0.0,98,0.00,,,0.00,0,Wunderground v.1.15,2013-01-12 06:32:00,
2013-01-12 01:38:00,34.9,34.4,30.14,SE,143,0.0,0.0,98,0.00,,,0.00,0,Wunderground v.1.15,2013-01-12 06:38:00,
2013-01-12 01:44:00,34.7,34.2,30.13,SE,143,0.0,0.0,98,0.00,,,0.00,0,Wunderground v.1.15,2013-01-12 06:44:00,
2013-01-12 01:50:00,34.8,34.3,30.13,SE,143,0.0,0.0,98,0.00,,,0.00,0,Wunderground v.1.15,2013-01-12 06:50:00,
2013-01-12 01:56:00,34.8,34.3,30.14,SE,143,0.0,0.0,98,0.00,,,0.00,0,Wunderground v.1.15,2013-01-12 06:56:00,
2013-01-12 02:02:00,34.7,34.2,30.14,SE,143,0.0,0.0,98,0.00,,,0.00,0,Wunderground v.1.15,2013-01-12 07:02:00,
2013-01-12 02:08:00,34.5,34.0,30.14,SE,143,0.0,0.0,98,0.00,,,0.00,0,Wunderground v.1.15,2013-01-12 07:08:00,
2013-01-12 02:14:00,34.8,34.3,30.14,SE,143,0.0,0.0,98,0.00,,,0.00,0,Wunderground v.1.15,2013-01-12 07:14:00,
2013-01-12 02:20:00,34.9,34.4,30.15,SE,143,0.0,0.0,98,0.00,,,0.00,0,Wunderground v.1.15,2013-01-12 07:20:00,
2013-01-12 02:26:00,34.7,34.2,30.15,SE,143,0.0,0.0,98,0.00,,,0.00,0,Wunderground v.1.15,2013-01-12 07:26:00,
2013-01-12 02:32:00,34.8,34.3,30.15,SE,143,0.0,0.0,98,0.00,,,0.00,0,Wunderground v.1.15,2013-01-12 07:32:00,
2013-01-12 02:38:00,34.8,34.3,30.15,SE,143,0.0,0.0,98,0.00,,,0.00,0,Wunderground v.1.15,2013-01-12 07:38:00,
2013-01-12 02:44:00,34.7,34.2,30.16,SE,143,0.0,0.0,98,0.00,,,0.00,0,Wunderground v.1.15,2013-01-12 07:44:00,
2013-01-12 02:50:00,35.0,34.5,30.16,SE,143,0.0,0.0,98,0.00,,,0.00,0,Wunderground v.1.15,2013-01-12 07:50:00,
2013-01-12 02:56:00,34.7,34.2,30.15,SE,143,0.0,0.0,98,0.00,,,0.00,0,Wunderground v.1.15,2013-01-12 07:56:00,
2013-01-12 03:02:00,34.9,34.4,30.15,SE,143,0.0,0.0,98,0.00,,,0.00,0,Wunderground v.1.15,2013-01-12 08:02:00,
2013-01-12 03:08:00,34.8,34.3,30.15,SE,143,0.0,0.0,98,0.00,,,0.00,0,Wunderground v.1.15,2013-01-12 08:08:00,
2013-01-12 03:14:00,34.7,34.2,30.15,SE,143,0.0,0.0,98,0.00,,,0.00,0,Wunderground v.1.15,2013-01-12 08:14:00,
2013-01-12 03:20:00,34.7,34.2,30.15,SE,143,0.0,0.0,98,0.00,,,0.00,0,Wunderground v.1.15,2013-01-12 08:20:00,
2013-01-12 03:26:00,34.6,34.1,30.15,SE,143,0.0,0.0,98,0.00,,,0.00,0,Wunderground v.1.15,2013-01-12 08:26:00,
2013-01-12 03:32:00,35.0,34.5,30.15,SE,143,0.0,0.0,98,0.00,,,0.00,0,Wunderground v.1.15,2013-01-12 08:32:00,
2013-01-12 03:38:00,35.1,34.6,30.15,SE,143,0.0,0.0,98,0.00,,,0.00,0,Wunderground v.1.15,2013-01-12 08:38:00,
2013-01-12 03:44:00,34.8,34.3,30.15,SE,143,0.0,0.0,98,0.00,,,0.00,0,Wunderground v.1.15,2013-01-12 08:44:00,
2013-01-12 03:50:00,34.9,34.4,30.14,SE,143,0.0,0.0,98,0.00,,,0.00,0,Wunderground v.1.15,2013-01-12 08:50:00,
2013-01-12 03:56:00,34.8,34.3,30.14,SE,143,0.0,0.0,98,0.00,,,0.00,0,Wunderground v.1.15,2013-01-12 08:56:00,
2013-01-12 04:02:00,34.6,34.1,30.14,SE,143,0.0,0.0,98,0.00,,,0.00,0,Wunderground v.1.15,2013-01-12 09:02:00,
2013-01-12 04:08:00,34.7,34.2,30.15,SE,143,0.0,0.0,98,0.00,,,0.00,0,Wunderground v.1.15,2013-01-12 09:08:00,
2013-01-12 04:14:00,34.5,34.0,30.15,SE,143,0.0,0.0,98,0.00,,,0.00,0,Wunderground v.1.15,2013-01-12 09:14:00,
2013-01-12 04:20:00,34.7,34.2,30.15,SE,143,0.0,0.0,98,0.00,,,0.00,0,Wunderground v.1.15,2013-01-12 09:20:00,
2013-01-12 04:26:00,34.8,34.3,30.15,SE,143,0.0,0.0,98,0.00,,,0.00,0,Wunderground v.1.15,2013-01-12 09:26:00,
2013-01-12 04:32:00,34.8,34.3,30.15,SE,143,0.0,0.0,98,0.00,,,0.00,0,Wunderground v.1.15,2013-01-12 09:32:00,
2013-01-12 04:38:00,34.7,34.2,30.15,SE,143,0.0,0.0,98,0.00,,,0.00,0,Wunderground v.1.15,2013-01-12 09:38:00,
2013-01-12 04:44:00,34.7,34.2,30.15,SE,143,0.0,0.0,98,0.00,,,0.00,0,Wunderground v.1.15,2013-01-12 09:44:00,
2013-01-12 04:50:00,34.6,34.1,30.15,SE,143,0.0,0.0,98,0.00,,,0.00,0,Wunderground v.1.15,2013-01-12 09:50:00,
2013-01-12 04:56:00,34.5,34.0,30.15,SE,143,0.0,0.0,98,0.00,,,0.00,0,Wunderground v.1.15,2013-01-12 09:56:00,
2013-01-12 05:02:00,34.4,33.9,30.15,SE,143,0.0,0.0,98,0.00,,,0.00,0,Wunderground v.1.15,2013-01-12 10:02:00,
2013-01-12 05:08:00,34.7,34.2,30.15,SE,143,0.0,0.0,98,0.00,,,0.00,0,Wunderground v.1.15,2013-01-12 10:08:00,
2013-01-12 05:14:00,34.8,34.3,30.15,SE,143,0.0,0.0,98,0.00,,,0.00,0,Wunderground v.1.15,2013-01-12 10:14:00,
2013-01-12 05:20:00,34.5,34.0,30.15,SE,143,0.0,0.0,98,0.00,,,0.00,0,Wunderground v.1.15,2013-01-12 10:20:00,
2013-01-12 05:26:00,34.6,34.1,30.16,SE,143,0.0,0.0,98,0.00,,,0.00,0,Wunderground v.1.15,2013-01-12 10:26:00,
2013-01-12 05:32:00,34.6,34.1,30.16,SE,143,0.0,0.0,98,0.00,,,0.00,0,Wunderground v.1.15,2013-01-12 10:32:00,
2013-01-12 05:38:00,34.6,34.1,30.16,SE,143,0.0,0.0,98,0.00,,,0.00,0,Wunderground v.1.15,2013-01-12 10:38:00,
2013-01-12 05:44:00,34.5,34.0,30.16,SE,143,0.0,0.0,98,0.00,,,0.00,0,Wunderground v.1.15,2013-01-12 10:44:00,
2013-01-12 05:50:00,34.6,34.1,30.15,SE,143,0.0,0.0,98,0.00,,,0.00,0,Wunderground v.1.15,2013-01-12 10:50:00,
2013-01-12 05:56:00,34.7,34.4,30.15,SE,143,0.0,0.0,99,0.00,,,0.00,0,Wunderground v.1.15,2013-01-12 10:56:00,
2013-01-12 06:02:00,34.4,33.9,30.15,SE,143,0.0,0.0,98,0.00,,,0.00,0,Wunderground v.1.15,2013-01-12 11:02:00,
2013-01-12 06:08:00,34.3,33.8,30.16,SE,143,0.0,0.0,98,0.00,,,0.00,0,Wunderground v.1.15,2013-01-12 11:08:00,
2013-01-12 06:14:00,34.5,34.0,30.15,SE,143,0.0,0.0,98,0.00,,,0.00,0,Wunderground v.1.15,2013-01-12 11:14:00,
2013-01-12 06:20:00,34.5,34.0,30.16,SE,143,0.0,0.0,98,0.00,,,0.00,0,Wunderground v.1.15,2013-01-12 11:20:00,
2013-01-12 06:26:00,34.5,34.0,30.16,SE,143,0.0,0.0,98,0.00,,,0.00,0,Wunderground v.1.15,2013-01-12 11:26:00,
2013-01-12 06:32:00,34.4,33.9,30.16,SE,143,0.0,0.0,98,0.00,,,0.00,0,Wunderground v.1.15,2013-01-12 11:32:00,
2013-01-12 06:38:00,34.4,33.9,30.16,SE,143,0.0,0.0,98,0.00,,,0.00,0,Wunderground v.1.15,2013-01-12 11:38:00,
2013-01-12 06:44:00,34.5,34.0,30.16,SE,143,0.0,0.0,98,0.00,,,0.00,0,Wunderground v.1.15,2013-01-12 11:44:00,
2013-01-12 06:50:00,34.2,33.9,30.17,SE,143,0.0,0.0,99,0.00,,,0.00,0,Wunderground v.1.15,2013-01-12 11:50:00,
2013-01-12 06:56:00,34.3,34.0,30.16,SE,143,0.0,0.0,99,0.00,,,0.00,0,Wunderground v.1.15,2013-01-12 11:56:00,
2013-01-12 07:02:00,34.5,34.0,30.17,SE,143,0.0,0.0,98,0.00,,,0.00,0,Wunderground v.1.15,2013-01-12 12:02:00,
2013-01-12 07:08:00,34.5,34.0,30.17,SE,143,0.0,0.0,98,0.00,,,0.00,0,Wunderground v.1.15,2013-01-12 12:08:00,
2013-01-12 07:14:00,34.3,34.0,30.17,SE,143,0.0,0.0,99,0.00,,,0.00,0,Wunderground v.1.15,2013-01-12 12:14:00,
2013-01-12 07:20:00,34.6,34.1,30.17,SE,143,0.0,0.0,98,0.00,,,0.00,0,Wunderground v.1.15,2013-01-12 12:20:00,
2013-01-12 07:26:00,34.4,33.9,30.17,SE,143,0.0,0.0,98,0.00,,,0.00,0,Wunderground v.1.15,2013-01-12 12:26:00,
2013-01-12 07:32:00,34.4,33.9,30.17,SE,143,0.0,0.0,98,0.00,,,0.00,0,Wunderground v.1.15,2013-01-12 12:32:00,
2013-01-12 07:38:00,34.5,34.0,30.17,SE,143,0.0,0.0,98,0.00,,,0.00,0,Wunderground v.1.15,2013-01-12 12:38:00,
2013-01-12 07:44:00,34.4,33.9,30.17,SE,143,0.0,0.0,98,0.00,,,0.00,0,Wunderground v.1.15,2013-01-12 12:44:00,
2013-01-12 07:50:00,34.5,34.0,30.17,SE,143,0.0,0.0,98,0.00,,,0.00,5,Wunderground v.1.15,2013-01-12 12:50:00,
2013-01-12 07:56:00,34.6,34.1,30.17,SE,143,0.0,0.0,98,0.00,,,0.00,7,Wunderground v.1.15,2013-01-12 12:56:00,
2013-01-12 08:02:00,34.2,33.9,30.17,SE,143,0.0,0.0,99,0.00,,,0.00,7,Wunderground v.1.15,2013-01-12 13:02:00,
2013-01-12 08:08:00,34.4,34.1,30.17,SE,143,0.0,0.0,99,0.00,,,0.00,11,Wunderground v.1.15,2013-01-12 13:08:00,
2013-01-12 08:14:00,34.6,34.1,30.17,SE,143,0.0,0.0,98,0.00,,,0.00,12,Wunderground v.1.15,2013-01-12 13:14:00,
2013-01-12 08:20:00,34.6,34.1,30.17,SE,143,0.0,0.0,98,0.00,,,0.00,16,Wunderground v.1.15,2013-01-12 13:20:00,
2013-01-12 08:26:00,34.7,34.4,30.17,SE,143,0.0,0.0,99,0.00,,,0.00,18,Wunderground v.1.15,2013-01-12 13:26:00,
2013-01-12 08:32:00,34.6,34.1,30.17,SE,143,0.0,0.0,98,0.00,,,0.00,21,Wunderground v.1.15,2013-01-12 13:32:00,
2013-01-12 08:38:00,34.7,34.4,30.17,SE,143,0.0,0.0,99,0.00,,,0.00,25,Wunderground v.1.15,2013-01-12 13:38:00,
2013-01-12 08:44:00,34.8,34.5,30.18,SE,143,0.0,0.0,99,0.00,,,0.00,26,Wunderground v.1.15,2013-01-12 13:44:00,
2013-01-12 08:50:00,34.9,34.6,30.17,SE,143,0.0,0.0,99,0.00,,,0.00,32,Wunderground v.1.15,2013-01-12 13:50:00,
2013-01-12 08:56:00,35.1,34.8,30.17,SE,143,0.0,0.0,99,0.00,,,0.00,33,Wunderground v.1.15,2013-01-12 13:56:00,
2013-01-12 09:02:00,35.2,34.9,30.17,SE,143,0.0,0.0,99,0.00,,,0.00,35,Wunderground v.1.15,2013-01-12 14:02:00,
2013-01-12 09:08:00,35.1,34.8,30.17,SE,143,0.0,0.0,99,0.00,,,0.00,35,Wunderground v.1.15,2013-01-12 14:08:00,
2013-01-12 09:14:00,35.2,34.9,30.17,SE,143,0.0,0.0,99,0.00,,,0.00,39,Wunderground v.1.15,2013-01-12 14:14:00,
2013-01-12 09:20:00,35.3,35.0,30.18,SE,143,0.0,0.0,99,0.00,,,0.00,39,Wunderground v.1.15,2013-01-12 14:20:00,
2013-01-12 09:26:00,35.3,35.0,30.18,SE,143,0.0,0.0,99,0.00,,,0.00,42,Wunderground v.1.15,2013-01-12 14:26:00,
2013-01-12 09:32:00,35.5,35.2,30.18,SE,143,0.0,0.0,99,0.00,,,0.00,44,Wunderground v.1.15,2013-01-12 14:32:00,
2013-01-12 09:38:00,35.6,35.3,30.18,SE,143,0.0,0.0,99,0.00,,,0.00,46,Wunderground v.1.15,2013-01-12 14:38:00,
2013-01-12 09:44:00,35.6,35.3,30.18,SE,143,0.0,0.0,99,0.00,,,0.00,46,Wunderground v.1.15,2013-01-12 14:44:00,
2013-01-12 09:50:00,35.7,35.4,30.18,SE,143,0.0,0.0,99,0.00,,,0.00,49,Wunderground v.1.15,2013-01-12 14:50:00,
2013-01-12 09:56:00,35.8,35.5,30.19,SE,143,0.0,0.0,99,0.00,,,0.00,56,Wunderground v.1.15,2013-01-12 14:56:00,
2013-01-12 10:02:00,36.0,35.7,30.19,SE,143,0.0,0.0,99,0.00,,,0.00,69,Wunderground v.1.15,2013-01-12 15:02:00,
2013-01-12 10:08:00,36.1,35.8,30.20,SE,143,0.0,0.0,99,0.00,,,0.00,70,Wunderground v.1.15,2013-01-12 15:08:00,
2013-01-12 10:14:00,36.2,35.9,30.20,SE,143,0.0,0.0,99,0.00,,,0.00,83,Wunderground v.1.15,2013-01-12 15:14:00,
2013-01-12 10:20:00,36.4,36.1,30.20,SE,143,0.0,0.0,99,0.00,,,0.00,95,Wunderground v.1.15,2013-01-12 15:20:00,
2013-01-12 10:26:00,36.7,36.4,30.20,SE,143,0.0,0.0,99,0.00,,,0.00,76,Wunderground v.1.15,2013-01-12 15:26:00,
2013-01-12 10:32:00,36.6,36.3,30.19,SE,143,0.0,0.0,99,0.00,,,0.00,63,Wunderground v.1.15,2013-01-12 15:32:00,
2013-01-12 10:38:00,36.8,36.5,30.19,SE,143,0.0,0.0,99,0.00,,,0.00,63,Wunderground v.1.15,2013-01-12 15:38:00,
2013-01-12 10:44:00,36.9,36.6,30.19,SE,143,0.0,0.0,99,0.00,,,0.00,72,Wunderground v.1.15,2013-01-12 15:44:00,
2013-01-12 10:50:00,37.0,36.7,30.19,SE,143,0.0,0.0,99,0.00,,,0.00,83,Wunderground v.1.15,2013-01-12 15:50:00,
2013-01-12 10:56:00,37.2,36.9,30.19,SE,143,0.0,0.0,99,0.00,,,0.00,135,Wunderground v.1.15,2013-01-12 15:56:00,
2013-01-12 11:02:00,37.3,37.0,30.19,SE,143,0.0,0.0,99,0.00,,,0.00,118,Wunderground v.1.15,2013-01-12 16:02:00,
2013-01-12 11:08:00,37.4,37.1,30.19,SE,143,0.0,0.0,99,0.00,,,0.00,128,Wunderground v.1.15,2013-01-12 16:08:00,
2013-01-12 11:14:00,37.7,37.4,30.18,SE,143,0.0,0.0,99,0.00,,,0.00,141,Wunderground v.1.15,2013-01-12 16:14:00,
2013-01-12 11:20:00,37.8,37.5,30.18,SE,143,0.0,0.0,99,0.00,,,0.00,141,Wunderground v.1.15,2013-01-12 16:20:00,
2013-01-12 11:26:00,38.0,37.7,30.17,SE,143,0.0,0.0,99,0.00,,,0.00,127,Wunderground v.1.15,2013-01-12 16:26:00,
2013-01-12 11:32:00,38.1,37.8,30.18,SE,143,0.0,0.0,99,0.00,,,0.00,113,Wunderground v.1.15,2013-01-12 16:32:00,
2013-01-12 11:38:00,38.4,38.1,30.17,SE,140,0.0,0.0,99,0.00,,,0.00,91,Wunderground v.1.15,2013-01-12 16:38:00,
2013-01-12 11:44:00,38.3,38.0,30.17,SE,146,0.0,0.0,99,0.00,,,0.00,127,Wunderground v.1.15,2013-01-12 16:44:00,
2013-01-12 11:50:00,38.3,38.0,30.17,SE,146,0.0,0.0,99,0.00,,,0.00,91,Wunderground v.1.15,2013-01-12 16:50:00,
2013-01-12 11:56:00,38.4,38.1,30.16,SE,143,0.0,0.0,99,0.00,,,0.00,104,Wunderground v.1.15,2013-01-12 16:56:00,
2013-01-12 12:02:00,38.5,38.2,30.15,SE,143,0.0,0.0,99,0.00,,,0.00,114,Wunderground v.1.15,2013-01-12 17:02:00,
2013-01-12 12:08:00,38.6,38.3,30.15,SE,143,0.0,0.0,99,0.00,,,0.00,102,Wunderground v.1.15,2013-01-12 17:08:00,
2013-01-12 12:14:00,38.8,38.5,30.15,SE,143,0.0,0.0,99,0.00,,,0.00,100,Wunderground v.1.15,2013-01-12 17:14:00,
2013-01-12 12:20:00,39.1,38.8,30.15,SSW,200,0.0,0.0,99,0.00,,,0.00,95,Wunderground v.1.15,2013-01-12 17:20:00,
2013-01-12 12:26:00,39.2,38.9,30.15,WSW,250,0.0,0.0,99,0.00,,,0.00,100,Wunderground v.1.15,2013-01-12 17:26:00,
2013-01-12 12:32:00,39.2,38.9,30.16,WSW,250,0.0,0.0,99,0.00,,,0.00,93,Wunderground v.1.15,2013-01-12 17:32:00,
2013-01-12 12:38:00,39.3,39.0,30.15,WSW,250,0.0,0.0,99,0.00,,,0.00,98,Wunderground v.1.15,2013-01-12 17:38:00,
2013-01-12 12:44:00,39.5,39.2,30.15,WSW,250,0.0,0.0,99,0.00,,,0.00,121,Wunderground v.1.15,2013-01-12 17:44:00,
2013-01-12 12:50:00,39.8,39.5,30.16,SE,133,0.0,0.0,99,0.00,,,0.00,113,Wunderground v.1.15,2013-01-12 17:50:00,
2013-01-12 12:56:00,39.7,39.4,30.15,SE,133,0.0,0.0,99,0.00,,,0.00,125,Wunderground v.1.15,2013-01-12 17:56:00,
2013-01-12 13:02:00,39.6,39.3,30.15,SE,133,0.0,0.0,99,0.00,,,0.00,104,Wunderground v.1.15,2013-01-12 18:02:00,
2013-01-12 13:08:00,39.6,39.3,30.15,SE,133,0.0,0.0,99,0.00,,,0.00,109,Wunderground v.1.15,2013-01-12 18:08:00,
2013-01-12 13:14:00,39.7,39.4,30.15,SE,133,0.0,0.0,99,0.00,,,0.00,146,Wunderground v.1.15,2013-01-12 18:14:00,
2013-01-12 13:20:00,39.8,39.5,30.15,SE,133,0.0,0.0,99,0.00,,,0.00,174,Wunderground v.1.15,2013-01-12 18:20:00,
2013-01-12 13:26:00,40.0,39.7,30.15,SE,133,0.0,0.0,99,0.00,,,0.00,178,Wunderground v.1.15,2013-01-12 18:26:00,
2013-01-12 13:32:00,40.2,39.9,30.14,SE,133,0.0,0.0,99,0.00,,,0.00,130,Wunderground v.1.15,2013-01-12 18:32:00,
2013-01-12 13:38:00,40.6,40.3,30.14,SE,133,0.0,0.0,99,0.00,,,0.00,111,Wunderground v.1.15,2013-01-12 18:38:00,
2013-01-12 13:44:00,40.5,40.2,30.14,SE,133,0.0,0.0,99,0.00,,,0.00,102,Wunderground v.1.15,2013-01-12 18:44:00,
2013-01-12 13:50:00,40.5,40.2,30.14,SE,133,0.0,0.0,99,0.00,,,0.00,100,Wunderground v.1.15,2013-01-12 18:50:00,
2013-01-12 13:56:00,40.6,40.3,30.14,SE,133,0.0,0.0,99,0.00,,,0.00,88,Wunderground v.1.15,2013-01-12 18:56:00,
2013-01-12 14:02:00,40.7,40.4,30.14,SE,133,0.0,0.0,99,0.00,,,0.00,97,Wunderground v.1.15,2013-01-12 19:02:00,
2013-01-12 14:08:00,41.1,40.8,30.15,SE,133,0.0,0.0,99,0.00,,,0.00,148,Wunderground v.1.15,2013-01-12 19:08:00,
2013-01-12 14:14:00,41.4,41.1,30.15,SE,133,0.0,0.0,99,0.00,,,0.00,155,Wunderground v.1.15,2013-01-12 19:14:00,
2013-01-12 14:20:00,41.5,41.2,30.15,SE,133,0.0,0.0,99,0.00,,,0.00,153,Wunderground v.1.15,2013-01-12 19:20:00,
2013-01-12 14:26:00,41.4,41.1,30.15,SE,133,0.0,0.0,99,0.00,,,0.00,109,Wunderground v.1.15,2013-01-12 19:26:00,
2013-01-12 17:26:00,39.9,39.6,30.17,SE,133,0.0,0.0,99,0.00,,,0.00,0,Wunderground v.1.15,2013-01-12 22:26:00,
2013-01-12 17:32:00,39.6,39.3,30.18,SE,133,0.0,0.0,99,0.00,,,0.00,0,Wunderground v.1.15,2013-01-12 22:32:00,
2013-01-12 17:38:00,39.4,39.1,30.17,SE,133,0.0,0.0,99,0.00,,,0.00,0,Wunderground v.1.15,2013-01-12 22:38:00,
2013-01-12 17:44:00,39.6,39.3,30.17,SE,133,0.0,0.0,99,0.00,,,0.00,0,Wunderground v.1.15,2013-01-12 22:44:00,
2013-01-12 17:50:00,39.0,38.7,30.17,SE,133,0.0,0.0,99,0.00,,,0.00,0,Wunderground v.1.15,2013-01-12 22:50:00,
2013-01-12 17:56:00,38.8,38.5,30.17,SE,133,0.0,0.0,99,0.00,,,0.00,0,Wunderground v.1.15,2013-01-12 22:56:00,
2013-01-12 18:02:00,38.7,38.4,30.17,SE,133,0.0,0.0,99,0.00,,,0.00,0,Wunderground v.1.15,2013-01-12 23:02:00,
2013-01-12 18:08:00,38.6,38.3,30.16,SE,133,0.0,0.0,99,0.00,,,0.00,0,Wunderground v.1.15,2013-01-12 23:08:00,
2013-01-12 18:14:00,38.3,38.0,30.17,SE,133,0.0,0.0,99,0.00,,,0.00,0,Wunderground v.1.15,2013-01-12 23:14:00,
2013-01-12 18:20:00,38.3,38.0,30.16,SE,133,0.0,0.0,99,0.00,,,0.00,0,Wunderground v.1.15,2013-01-12 23:20:00,
2013-01-12 18:26:00,38.2,37.9,30.16,SE,133,0.0,0.0,99,0.00,,,0.00,0,Wunderground v.1.15,2013-01-12 23:26:00,
2013-01-12 18:32:00,38.1,37.8,30.16,SE,133,0.0,0.0,99,0.00,,,0.00,0,Wunderground v.1.15,2013-01-12 23:32:00,
2013-01-12 18:38:00,38.1,37.8,30.17,SE,133,0.0,0.0,99,0.00,,,0.00,0,Wunderground v.1.15,2013-01-12 23:38:00,
2013-01-12 18:44:00,37.7,37.4,30.17,SE,133,0.0,0.0,99,0.00,,,0.00,0,Wunderground v.1.15,2013-01-12 23:44:00,
2013-01-12 18:50:00,37.7,37.4,30.17,SE,133,0.0,0.0,99,0.00,,,0.00,0,Wunderground v.1.15,2013-01-12 23:50:00,
2013-01-12 18:56:00,37.5,37.2,30.16,SE,133,0.0,0.0,99,0.00,,,0.00,0,Wunderground v.1.15,2013-01-12 23:56:00,
2013-01-12 19:02:00,38.0,37.7,30.16,SE,133,0.0,0.0,99,0.00,,,0.00,0,Wunderground v.1.15,2013-01-13 00:02:00,
2013-01-12 19:08:00,37.6,37.3,30.16,SE,133,0.0,0.0,99,0.00,,,0.00,0,Wunderground v.1.15,2013-01-13 00:08:00,
2013-01-12 19:14:00,37.5,37.2,30.16,SE,133,0.0,0.0,99,0.00,,,0.00,0,Wunderground v.1.15,2013-01-13 00:14:00,
2013-01-12 19:20:00,37.6,37.3,30.16,SE,133,0.0,0.0,99,0.00,,,0.00,0,Wunderground v.1.15,2013-01-13 00:20:00,
2013-01-12 19:26:00,37.7,37.4,30.16,SE,133,0.0,0.0,99,0.00,,,0.00,0,Wunderground v.1.15,2013-01-13 00:26:00,
2013-01-12 19:32:00,38.1,37.8,30.16,SE,133,0.0,0.0,99,0.00,,,0.00,0,Wunderground v.1.15,2013-01-13 00:32:00,
2013-01-12 19:38:00,37.1,36.8,30.16,SE,133,0.0,0.0,99,0.00,,,0.00,0,Wunderground v.1.15,2013-01-13 00:38:00,
2013-01-12 19:44:00,37.8,37.5,30.15,SE,133,0.0,0.0,99,0.00,,,0.00,0,Wunderground v.1.15,2013-01-13 00:44:00,
2013-01-12 19:50:00,37.2,36.9,30.16,SE,133,0.0,0.0,99,0.00,,,0.00,0,Wunderground v.1.15,2013-01-13 00:50:00,
2013-01-12 19:56:00,37.1,36.8,30.16,SE,133,0.0,0.0,99,0.00,,,0.00,0,Wunderground v.1.15,2013-01-13 00:56:00,
2013-01-12 20:02:00,37.0,36.7,30.16,SE,133,0.0,0.0,99,0.00,,,0.00,0,Wunderground v.1.15,2013-01-13 01:02:00,
2013-01-12 20:08:00,36.8,36.5,30.16,SE,133,0.0,0.0,99,0.00,,,0.00,0,Wunderground v.1.15,2013-01-13 01:08:00,
2013-01-12 20:14:00,36.9,36.6,30.16,SE,133,0.0,0.0,99,0.00,,,0.00,0,Wunderground v.1.15,2013-01-13 01:14:00,
2013-01-12 20:20:00,36.9,36.6,30.16,SE,133,0.0,0.0,99,0.00,,,0.00,0,Wunderground v.1.15,2013-01-13 01:20:00,
2013-01-12 20:26:00,36.8,36.5,30.16,SE,133,0.0,0.0,99,0.00,,,0.00,0,Wunderground v.1.15,2013-01-13 01:26:00,
2013-01-12 20:32:00,36.4,36.1,30.16,SE,133,0.0,0.0,99,0.00,,,0.00,0,Wunderground v.1.15,2013-01-13 01:32:00,
2013-01-12 20:38:00,36.7,36.4,30.16,SE,133,0.0,0.0,99,0.00,,,0.00,0,Wunderground v.1.15,2013-01-13 01:38:00,
2013-01-12 20:44:00,36.8,36.5,30.15,SE,133,0.0,0.0,99,0.00,,,0.00,0,Wunderground v.1.15,2013-01-13 01:44:00,
2013-01-12 20:50:00,36.7,36.4,30.15,SE,133,0.0,0.0,99,0.00,,,0.00,0,Wunderground v.1.15,2013-01-13 01:50:00,
2013-01-12 20:56:00,36.4,36.1,30.16,SE,133,0.0,0.0,99,0.00,,,0.00,0,Wunderground v.1.15,2013-01-13 01:56:00,
2013-01-12 21:02:00,36.5,36.2,30.16,SE,133,0.0,0.0,99,0.00,,,0.00,0,Wunderground v.1.15,2013-01-13 02:02:00,
2013-01-12 21:08:00,36.7,36.4,30.16,SE,133,0.0,0.0,99,0.00,,,0.00,0,Wunderground v.1.15,2013-01-13 02:08:00,
2013-01-12 21:14:00,36.9,36.6,30.15,SE,133,0.0,0.0,99,0.00,,,0.00,0,Wunderground v.1.15,2013-01-13 02:14:00,
2013-01-12 21:20:00,36.5,36.2,30.15,SE,133,0.0,0.0,99,0.00,,,0.00,0,Wunderground v.1.15,2013-01-13 02:20:00,
2013-01-12 21:26:00,35.8,35.5,30.15,SE,133,0.0,0.0,99,0.00,,,0.00,0,Wunderground v.1.15,2013-01-13 02:26:00,
2013-01-12 21:32:00,35.9,35.6,30.15,SE,133,0.0,0.0,99,0.00,,,0.00,0,Wunderground v.1.15,2013-01-13 02:32:00,
2013-01-12 21:38:00,36.2,35.9,30.15,SE,133,0.0,0.0,99,0.00,,,0.00,0,Wunderground v.1.15,2013-01-13 02:38:00,
2013-01-12 21:44:00,36.2,35.9,30.16,SE,133,0.0,0.0,99,0.00,,,0.00,0,Wunderground v.1.15,2013-01-13 02:44:00,
2013-01-12 21:50:00,36.2,35.9,30.16,SE,133,0.0,0.0,99,0.00,,,0.00,0,Wunderground v.1.15,2013-01-13 02:50:00,
2013-01-12 21:56:00,36.5,36.2,30.15,SE,133,0.0,0.0,99,0.00,,,0.00,0,Wunderground v.1.15,2013-01-13 02:56:00,
2013-01-12 22:02:00,36.0,35.7,30.15,SE,133,0.0,0.0,99,0.00,,,0.00,0,Wunderground v.1.15,2013-01-13 03:02:00,
2013-01-12 22:08:00,35.6,35.3,30.16,SE,133,0.0,0.0,99,0.00,,,0.00,0,Wunderground v.1.15,2013-01-13 03:08:00,
2013-01-12 22:14:00,35.7,35.4,30.16,SE,133,0.0,0.0,99,0.00,,,0.00,0,Wunderground v.1.15,2013-01-13 03:14:00,
2013-01-12 22:20:00,35.9,35.6,30.15,SE,133,0.0,0.0,99,0.00,,,0.00,0,Wunderground v.1.15,2013-01-13 03:20:00,
2013-01-12 22:26:00,35.9,35.6,30.16,SE,133,0.0,0.0,99,0.00,,,0.00,0,Wunderground v.1.15,2013-01-13 03:26:00,
2013-01-12 22:32:00,35.8,35.5,30.15,SE,133,0.0,0.0,99,0.00,,,0.00,0,Wunderground v.1.15,2013-01-13 03:32:00,
2013-01-12 22:38:00,36.0,35.7,30.14,SE,133,0.0,0.0,99,0.00,,,0.00,0,Wunderground v.1.15,2013-01-13 03:38:00,
2013-01-12 22:44:00,35.7,35.4,30.14,SE,133,0.0,0.0,99,0.00,,,0.00,0,Wunderground v.1.15,2013-01-13 03:44:00,
2013-01-12 22:50:00,35.6,35.3,30.14,SE,133,0.0,0.0,99,0.00,,,0.00,0,Wunderground v.1.15,2013-01-13 03:50:00,
2013-01-12 22:56:00,35.6,35.3,30.14,SE,133,0.0,0.0,99,0.00,,,0.00,0,Wunderground v.1.15,2013-01-13 03:56:00,
2013-01-12 23:02:00,35.8,35.5,30.14,SE,133,0.0,0.0,99,0.00,,,0.00,0,Wunderground v.1.15,2013-01-13 04:02:00,
2013-01-12 23:08:00,35.7,35.4,30.13,SE,133,0.0,0.0,99,0.00,,,0.00,0,Wunderground v.1.15,2013-01-13 04:08:00,
2013-01-12 23:14:00,35.8,35.5,30.13,SE,133,0.0,0.0,99,0.00,,,0.00,0,Wunderground v.1.15,2013-01-13 04:14:00,
2013-01-12 23:20:00,36.0,35.7,30.12,SE,133,0.0,0.0,99,0.00,,,0.00,0,Wunderground v.1.15,2013-01-13 04:20:00,
2013-01-12 23:26:00,35.9,35.6,30.11,SE,133,0.0,0.0,99,0.00,,,0.00,0,Wunderground v.1.15,2013-01-13 04:26:00,
2013-01-12 23:32:00,35.5,35.2,30.11,SE,133,0.0,0.0,99,0.00,,,0.00,0,Wunderground v.1.15,2013-01-13 04:32:00,
2013-01-12 23:38:00,35.6,35.3,30.11,SE,133,0.0,0.0,99,0.00,,,0.00,0,Wunderground v.1.15,2013-01-13 04:38:00,
2013-01-12 23:44:00,35.7,35.4,30.11,SE,133,0.0,0.0,99,0.00,,,0.00,0,Wunderground v.1.15,2013-01-13 04:44:00,
2013-01-12 23:50:00,35.5,35.2,30.11,SE,133,0.0,0.0,99,0.00,,,0.00,0,Wunderground v.1.15,2013-01-13 04:50:00,
2013-01-12 23:56:00,35.4,35.1,30.10,SE,133,0.0,0.0,99,0.00,,,0.00,0,Wunderground v.1.15,2013-01-13 04:56:00,